createdAt,value
2023-05-24T00:02:23.943Z,7.60
2023-05-24T00:04:53.029Z,8.57
2023-05-24T00:07:20.294Z,8.00
2023-05-24T00:09:47.253Z,11.63
2023-05-24T00:12:14.174Z,12.65
2023-05-24T00:14:41.073Z,8.77
2023-05-24T00:17:07.987Z,9.38
2023-05-24T00:19:38.486Z,9.25
2023-05-24T00:22:05.643Z,5.68
2023-05-24T00:24:32.620Z,8.05
2023-05-24T00:26:59.490Z,7.28
2023-05-24T00:29:26.358Z,8.65
2023-05-24T00:31:53.284Z,6.63
2023-05-24T00:34:20.442Z,12.30
2023-05-24T00:36:47.347Z,8.82
2023-05-24T00:39:14.231Z,8.15
2023-05-24T00:41:41.146Z,10.82
2023-05-24T00:44:11.006Z,8.45
2023-05-24T00:46:38.381Z,10.10
2023-05-24T00:49:05.567Z,6.28
2023-05-24T00:51:33.980Z,9.30
2023-05-24T00:54:01.330Z,8.35
2023-05-24T00:56:28.686Z,9.35
2023-05-24T00:58:56.411Z,6.80
2023-05-24T01:01:26.707Z,6.78
2023-05-24T01:03:54.508Z,11.27
2023-05-24T01:06:23.584Z,8.68
2023-05-24T01:09:11.993Z,10.80
2023-05-24T01:12:17.030Z,6.68
2023-05-24T01:15:21.451Z,8.40
2023-05-24T01:18:01.774Z,6.80
2023-05-24T01:20:34.369Z,7.32
2023-05-24T01:23:14.885Z,8.90
2023-05-24T01:25:51.058Z,8.57
2023-05-24T01:28:18.797Z,12.00
2023-05-24T01:30:46.547Z,6.35
2023-05-24T01:33:13.855Z,7.50
2023-05-24T01:35:42.346Z,9.65
2023-05-24T01:38:12.821Z,7.32
2023-05-24T01:40:41.296Z,9.18
2023-05-24T01:43:33.859Z,6.68
2023-05-24T01:46:06.840Z,10.73
2023-05-24T01:49:21.425Z,8.15
2023-05-24T01:52:01.676Z,6.63
2023-05-24T01:54:34.080Z,9.20
2023-05-24T01:57:05.485Z,8.35
2023-05-24T01:59:33.936Z,7.68
2023-05-24T02:02:01.682Z,7.78
2023-05-24T02:04:28.752Z,7.13
2023-05-24T02:06:55.673Z,9.05
2023-05-24T02:09:22.589Z,9.40
2023-05-24T02:11:49.531Z,8.10
2023-05-24T02:14:17.478Z,8.35
2023-05-24T02:16:46.836Z,9.25
2023-05-24T02:19:14.576Z,14.90
2023-05-24T02:21:41.496Z,11.95
2023-05-24T02:24:11.348Z,11.02
2023-05-24T02:26:39.133Z,11.45
2023-05-24T02:29:06.186Z,13.23
2023-05-24T02:31:33.303Z,9.70
2023-05-24T02:34:00.355Z,13.30
2023-05-24T02:36:27.633Z,10.13
2023-05-24T02:38:54.558Z,8.20
2023-05-24T02:41:22.204Z,8.70
2023-05-24T02:43:49.151Z,8.85
2023-05-24T02:46:17.096Z,9.73
2023-05-24T02:48:44.042Z,8.57
2023-05-24T02:51:10.906Z,11.07
2023-05-24T02:53:37.792Z,10.95
2023-05-24T02:56:04.769Z,10.63
2023-05-24T02:58:31.641Z,9.75
2023-05-24T03:00:58.630Z,8.35
2023-05-24T03:03:25.875Z,8.75
2023-05-24T03:05:52.816Z,15.18
2023-05-24T03:08:19.746Z,10.52
2023-05-24T03:10:46.608Z,9.55
2023-05-24T03:13:13.506Z,12.32
2023-05-24T03:15:40.881Z,11.45
2023-05-24T03:18:07.802Z,11.73
2023-05-24T03:20:34.779Z,13.23
2023-05-24T03:23:01.759Z,10.60
2023-05-24T03:25:28.723Z,13.75
2023-05-24T03:27:55.580Z,13.40
2023-05-24T03:30:22.506Z,14.32
2023-05-24T03:32:49.453Z,11.25
2023-05-24T03:35:16.309Z,14.00
2023-05-24T03:37:43.204Z,13.65
2023-05-24T03:40:11.100Z,13.05
2023-05-24T03:42:38.433Z,13.50
2023-05-24T03:45:06.118Z,13.55
2023-05-24T03:47:33.023Z,14.00
2023-05-24T03:49:59.918Z,9.38
2023-05-24T03:52:26.874Z,14.00
2023-05-24T03:54:53.764Z,16.23
2023-05-24T03:57:20.773Z,10.50
2023-05-24T03:59:47.827Z,12.73
2023-05-24T04:02:14.816Z,13.55
2023-05-24T04:04:42.168Z,12.82
2023-05-24T04:07:12.044Z,12.88
2023-05-24T04:09:38.970Z,15.13
2023-05-24T04:12:06.170Z,13.90
2023-05-24T04:14:33.026Z,12.02
2023-05-24T04:17:00.034Z,10.90
2023-05-24T04:19:27.000Z,13.80
2023-05-24T04:21:53.914Z,11.77
2023-05-24T04:24:20.824Z,11.02
2023-05-24T04:26:47.889Z,13.15
2023-05-24T04:29:15.021Z,17.38
2023-05-24T04:31:44.851Z,15.80
2023-05-24T04:34:14.316Z,15.65
2023-05-24T04:36:41.619Z,13.85
2023-05-24T04:39:08.494Z,16.05
2023-05-24T04:41:38.769Z,20.25
2023-05-24T04:44:05.756Z,23.35
2023-05-24T04:46:35.483Z,15.98
2023-05-24T04:49:02.636Z,11.52
2023-05-24T04:51:29.602Z,11.30
2023-05-24T04:53:56.590Z,13.82
2023-05-24T04:56:23.738Z,13.82
2023-05-24T04:58:51.115Z,11.13
2023-05-24T05:01:18.436Z,18.55
2023-05-24T05:03:46.111Z,16.85
2023-05-24T05:06:13.793Z,18.38
2023-05-24T05:08:40.681Z,16.23
2023-05-24T05:11:07.758Z,19.23
2023-05-24T05:13:34.684Z,13.02
2023-05-24T05:16:02.391Z,10.98
2023-05-24T05:18:29.435Z,13.90
2023-05-24T05:20:57.455Z,14.52
2023-05-24T05:23:24.350Z,18.15
2023-05-24T05:25:51.265Z,11.05
2023-05-24T05:28:18.166Z,15.98
2023-05-24T05:30:45.130Z,14.70
2023-05-24T05:33:12.206Z,14.07
2023-05-24T05:35:39.282Z,14.48
2023-05-24T05:38:06.176Z,11.18
2023-05-24T05:40:33.096Z,11.68
2023-05-24T05:43:00.135Z,15.30
2023-05-24T05:45:27.175Z,15.88
2023-05-24T05:47:54.261Z,9.55
2023-05-24T05:50:21.240Z,15.65
2023-05-24T05:52:48.136Z,12.38
2023-05-24T05:55:15.001Z,10.98
2023-05-24T05:57:41.977Z,13.88
2023-05-24T06:00:09.794Z,10.02
2023-05-24T06:02:36.768Z,14.02
2023-05-24T06:05:03.935Z,13.88
2023-05-24T06:07:31.171Z,9.57
2023-05-24T06:09:58.086Z,8.70
2023-05-24T06:12:24.988Z,13.23
2023-05-24T06:14:52.430Z,8.73
2023-05-24T06:17:19.341Z,8.85
2023-05-24T06:19:46.281Z,9.38
2023-05-24T06:22:13.186Z,16.10
2023-05-24T06:24:40.099Z,7.70
2023-05-24T06:27:07.011Z,9.15
2023-05-24T06:29:33.969Z,14.63
2023-05-24T06:32:01.108Z,8.88
2023-05-24T06:34:29.798Z,12.45
2023-05-24T06:36:56.742Z,9.60
2023-05-24T06:39:25.281Z,9.38
2023-05-24T06:41:52.297Z,6.45
2023-05-24T06:44:19.298Z,7.18
2023-05-24T06:46:46.548Z,10.32
2023-05-24T06:49:13.504Z,11.65
2023-05-24T06:51:40.594Z,8.05
2023-05-24T06:54:08.038Z,12.73
2023-05-24T06:56:35.209Z,11.20
2023-05-24T06:59:02.180Z,9.15
2023-05-24T07:01:29.899Z,7.90
2023-05-24T07:03:57.051Z,5.57
2023-05-24T07:06:25.185Z,7.55
2023-05-24T07:08:52.073Z,13.30
2023-05-24T07:11:19.123Z,4.63
2023-05-24T07:13:46.299Z,6.45
2023-05-24T07:16:13.192Z,8.35
2023-05-24T07:18:41.843Z,7.80
2023-05-24T07:21:09.065Z,6.70
2023-05-24T07:23:37.644Z,6.18
2023-05-24T07:26:05.612Z,9.57
2023-05-24T07:28:33.076Z,8.35
2023-05-24T07:31:00.003Z,5.03
2023-05-24T07:33:26.987Z,5.85
2023-05-24T07:35:53.908Z,3.60
2023-05-24T07:38:21.225Z,11.07
2023-05-24T07:40:48.385Z,8.73
2023-05-24T07:43:15.670Z,6.78
2023-05-24T07:45:42.767Z,4.45
2023-05-24T07:48:09.936Z,6.38
2023-05-24T07:50:37.379Z,5.78
2023-05-24T07:53:05.455Z,13.38
2023-05-24T07:55:32.393Z,5.35
2023-05-24T07:57:59.304Z,4.72
2023-05-24T08:00:26.974Z,6.53
2023-05-24T08:02:54.055Z,4.55
2023-05-24T08:05:21.106Z,3.47
2023-05-24T08:07:48.214Z,7.03
2023-05-24T08:10:15.152Z,14.65
2023-05-24T08:12:42.972Z,4.30
2023-05-24T08:15:10.301Z,4.30
2023-05-24T08:17:40.712Z,5.10
2023-05-24T08:20:14.338Z,7.43
2023-05-24T08:22:42.510Z,5.15
2023-05-24T08:25:10.947Z,8.75
2023-05-24T08:27:37.922Z,4.55
2023-05-24T08:30:05.632Z,6.70
2023-05-24T08:32:32.576Z,4.38
2023-05-24T08:35:14.932Z,8.15
2023-05-24T08:37:46.285Z,4.53
2023-05-24T08:40:13.629Z,6.30
2023-05-24T08:42:41.787Z,4.38
2023-05-24T08:45:12.042Z,4.68
2023-05-24T08:47:39.711Z,5.47
2023-05-24T08:50:10.293Z,3.40
2023-05-24T08:52:38.432Z,10.13
2023-05-24T08:55:05.868Z,6.30
2023-05-24T08:57:34.873Z,7.75
2023-05-24T09:00:02.265Z,4.18
2023-05-24T09:02:31.573Z,3.67
2023-05-24T09:04:59.819Z,8.70
2023-05-24T09:07:27.727Z,8.65
2023-05-24T09:10:01.155Z,7.68
2023-05-24T09:12:37.466Z,12.30
2023-05-24T09:15:06.912Z,9.13
2023-05-24T09:17:36.422Z,8.35
2023-05-24T09:20:07.095Z,10.57
2023-05-24T09:22:40.300Z,14.88
2023-05-24T09:25:09.739Z,13.93
2023-05-24T09:27:37.694Z,10.35
2023-05-24T09:30:10.329Z,11.77
2023-05-24T09:32:38.132Z,15.05
2023-05-24T09:35:09.581Z,13.50
2023-05-24T09:37:38.816Z,8.27
2023-05-24T09:40:07.261Z,5.95
2023-05-24T09:42:34.423Z,10.10
2023-05-24T09:45:05.081Z,12.07
2023-05-24T09:47:33.606Z,14.45
2023-05-24T09:50:02.265Z,8.32
2023-05-24T09:52:29.334Z,10.98
2023-05-24T09:54:56.268Z,5.97
2023-05-24T09:57:23.138Z,7.80
2023-05-24T09:59:50.755Z,5.18
2023-05-24T10:02:20.739Z,6.50
2023-05-24T10:04:48.184Z,11.65
2023-05-24T10:07:16.487Z,14.10
2023-05-24T10:09:45.914Z,7.25
2023-05-24T10:12:12.807Z,5.15
2023-05-24T10:14:39.851Z,6.22
2023-05-24T10:17:07.878Z,6.00
2023-05-24T10:19:36.683Z,9.90
2023-05-24T10:22:08.538Z,6.20
2023-05-24T10:24:47.786Z,8.15
2023-05-24T10:27:18.470Z,5.35
2023-05-24T10:30:08.575Z,7.82
2023-05-24T10:32:39.308Z,5.25
2023-05-24T10:35:08.101Z,5.00
2023-05-24T10:37:35.978Z,4.65
2023-05-24T10:40:03.783Z,6.38
2023-05-24T10:42:33.910Z,4.68
2023-05-24T10:45:16.174Z,5.90
2023-05-24T10:47:43.256Z,6.13
2023-05-24T10:50:21.178Z,5.72
2023-05-24T10:52:51.410Z,4.18
2023-05-24T10:55:21.318Z,6.38
2023-05-24T10:57:48.233Z,7.03
2023-05-24T11:00:34.800Z,5.20
2023-05-24T11:03:10.944Z,6.45
2023-05-24T11:05:48.019Z,5.75
2023-05-24T11:08:15.337Z,4.40
2023-05-24T11:10:45.071Z,4.88
2023-05-24T11:13:12.200Z,4.55
2023-05-24T11:15:39.925Z,4.38
2023-05-24T11:18:09.909Z,4.90
2023-05-24T11:20:37.267Z,5.80
2023-05-24T11:23:05.411Z,4.50
2023-05-24T11:25:33.928Z,4.18
2023-05-24T11:28:02.124Z,4.22
2023-05-24T11:30:29.205Z,3.20
2023-05-24T11:32:57.309Z,5.78
2023-05-24T11:35:27.868Z,5.13
2023-05-24T11:37:54.981Z,4.60
2023-05-24T11:40:22.043Z,4.68
2023-05-24T11:42:49.906Z,4.40
2023-05-24T11:45:19.111Z,5.40
2023-05-24T11:47:46.316Z,6.55
2023-05-24T11:50:16.945Z,7.78
2023-05-24T11:52:44.217Z,3.08
2023-05-24T11:55:16.409Z,5.53
2023-05-24T11:57:50.718Z,4.45
2023-05-24T12:00:25.149Z,5.90
2023-05-24T12:02:54.712Z,9.93
2023-05-24T12:05:24.048Z,3.97
2023-05-24T12:08:06.082Z,4.43
2023-05-24T12:10:37.650Z,9.02
2023-05-24T12:13:05.252Z,7.75
2023-05-24T12:15:32.473Z,11.60
2023-05-24T12:18:00.331Z,4.53
2023-05-24T12:20:30.457Z,6.95
2023-05-24T12:22:57.432Z,5.75
2023-05-24T12:25:27.109Z,3.67
2023-05-24T12:27:56.298Z,4.22
2023-05-24T12:30:28.149Z,5.78
2023-05-24T12:32:55.756Z,6.50
2023-05-24T12:35:23.648Z,8.13
2023-05-24T12:37:50.645Z,4.25
2023-05-24T12:40:23.532Z,5.18
2023-05-24T12:42:51.833Z,3.78
2023-05-24T12:45:26.017Z,5.85
2023-05-24T12:47:57.642Z,6.63
2023-05-24T12:50:26.895Z,3.10
2023-05-24T12:52:54.091Z,3.63
2023-05-24T12:55:23.869Z,5.07
2023-05-24T12:57:54.161Z,7.55
2023-05-24T13:00:28.911Z,5.03
2023-05-24T13:02:58.892Z,5.88
2023-05-24T13:05:27.930Z,6.20
2023-05-24T13:07:59.294Z,2.55
2023-05-24T13:10:27.670Z,6.57
2023-05-24T13:12:54.638Z,7.00
2023-05-24T13:15:23.365Z,4.13
2023-05-24T13:17:50.697Z,8.55
2023-05-24T13:20:22.030Z,3.15
2023-05-24T13:22:49.605Z,4.28
2023-05-24T13:25:16.754Z,3.60
2023-05-24T13:27:43.699Z,5.68
2023-05-24T13:30:12.603Z,4.57
2023-05-24T13:32:41.199Z,4.57
2023-05-24T13:35:08.801Z,9.10
2023-05-24T13:37:35.853Z,3.80
2023-05-24T13:40:03.275Z,7.13
2023-05-24T13:42:30.299Z,5.60
2023-05-24T13:44:59.231Z,3.42
2023-05-24T13:47:38.677Z,5.20
2023-05-24T13:50:07.674Z,3.13
2023-05-24T13:52:34.965Z,4.85
2023-05-24T13:55:04.921Z,3.22
2023-05-24T13:57:49.791Z,9.43
2023-05-24T14:00:19.065Z,6.47
2023-05-24T14:02:46.110Z,3.78
2023-05-24T14:05:26.614Z,6.55
2023-05-24T14:07:54.257Z,3.80
2023-05-24T14:10:21.995Z,3.88
2023-05-24T14:13:03.493Z,3.33
2023-05-24T14:15:36.461Z,5.88
2023-05-24T14:18:08.009Z,4.90
2023-05-24T14:20:38.648Z,7.22
2023-05-24T14:23:07.250Z,4.25
2023-05-24T14:25:34.350Z,6.13
2023-05-24T14:28:01.552Z,4.05
2023-05-24T14:30:28.522Z,4.75
2023-05-24T14:32:55.730Z,7.82
2023-05-24T14:35:22.738Z,4.63
2023-05-24T14:37:49.738Z,2.95
2023-05-24T14:40:19.111Z,9.63
2023-05-24T14:42:47.007Z,8.73
2023-05-24T14:45:14.053Z,3.15
2023-05-24T14:47:41.051Z,3.38
2023-05-24T14:50:08.506Z,6.03
2023-05-24T14:52:35.531Z,4.78
2023-05-24T14:55:02.874Z,4.68
2023-05-24T14:57:29.829Z,2.95
2023-05-24T14:59:56.736Z,4.65
2023-05-24T15:02:23.716Z,3.88
2023-05-24T15:04:50.614Z,6.68
2023-05-24T15:07:17.822Z,5.18
2023-05-24T15:09:44.716Z,8.43
2023-05-24T15:12:11.662Z,3.80
2023-05-24T15:14:38.819Z,7.03
2023-05-24T15:17:05.900Z,4.32
2023-05-24T15:19:32.830Z,5.32
2023-05-24T15:22:00.005Z,6.75
2023-05-24T15:24:26.937Z,6.43
2023-05-24T15:26:53.855Z,3.28
2023-05-24T15:29:21.520Z,7.82
2023-05-24T15:31:48.452Z,4.82
2023-05-24T15:34:15.541Z,6.43
2023-05-24T15:36:42.682Z,4.63
2023-05-24T15:39:09.595Z,6.43
2023-05-24T15:41:37.875Z,4.10
2023-05-24T15:44:08.850Z,4.88
2023-05-24T15:46:39.259Z,3.15
2023-05-24T15:49:06.226Z,6.82
2023-05-24T15:52:02.847Z,4.95
2023-05-24T15:54:20.094Z,4.30
2023-05-24T15:56:47.021Z,3.28
2023-05-24T15:59:13.974Z,11.85
2023-05-24T16:01:41.701Z,4.47
2023-05-24T16:04:08.696Z,7.88
2023-05-24T16:06:36.727Z,5.32
2023-05-24T16:09:05.339Z,6.70
2023-05-24T16:11:32.344Z,6.95
2023-05-24T16:13:59.314Z,5.95
2023-05-24T16:16:26.394Z,11.50
2023-05-24T16:18:53.458Z,5.32
2023-05-24T16:21:20.436Z,8.40
2023-05-24T16:23:47.498Z,5.65
2023-05-24T16:26:14.435Z,5.55
2023-05-24T16:28:41.355Z,10.40
2023-05-24T16:31:08.286Z,4.30
2023-05-24T16:33:35.192Z,4.68
2023-05-24T16:36:04.500Z,5.93
2023-05-24T16:38:31.517Z,8.25
2023-05-24T16:40:58.458Z,5.63
2023-05-24T16:43:26.031Z,10.07
2023-05-24T16:45:53.133Z,6.47
2023-05-24T16:48:21.793Z,4.03
2023-05-24T16:50:50.431Z,6.03
2023-05-24T16:53:17.565Z,9.93
2023-05-24T16:55:44.596Z,4.95
2023-05-24T16:58:11.568Z,4.05
2023-05-24T17:00:38.451Z,6.45
2023-05-24T17:03:05.439Z,5.40
2023-05-24T17:05:32.408Z,5.85
2023-05-24T17:07:59.349Z,5.43
2023-05-24T17:10:26.269Z,10.73
2023-05-24T17:12:53.412Z,8.02
2023-05-24T17:15:20.546Z,7.30
2023-05-24T17:17:47.640Z,5.57
2023-05-24T17:20:14.894Z,5.32
2023-05-24T17:22:41.906Z,4.13
2023-05-24T17:25:09.027Z,4.72
2023-05-24T17:27:36.383Z,9.93
2023-05-24T17:30:03.428Z,7.22
2023-05-24T17:32:30.328Z,5.20
2023-05-24T17:34:57.675Z,5.07
2023-05-24T17:37:24.578Z,4.68
2023-05-24T17:39:52.651Z,5.43
2023-05-24T17:42:19.699Z,4.90
2023-05-24T17:44:47.525Z,7.30
2023-05-24T17:47:14.632Z,3.42
2023-05-24T17:49:41.922Z,5.82
2023-05-24T17:52:08.863Z,6.43
2023-05-24T17:54:35.815Z,4.57
2023-05-24T17:57:03.079Z,4.75
2023-05-24T17:59:30.032Z,6.68
2023-05-24T18:01:56.941Z,4.53
2023-05-24T18:04:23.971Z,8.48
2023-05-24T18:06:51.921Z,4.75
2023-05-24T18:09:18.831Z,5.22
2023-05-24T18:11:48.947Z,3.65
2023-05-24T18:14:15.877Z,4.22
2023-05-24T18:16:43.088Z,4.25
2023-05-24T18:19:10.089Z,6.40
2023-05-24T18:21:38.053Z,4.07
2023-05-24T18:24:05.106Z,3.58
2023-05-24T18:26:32.144Z,6.05
2023-05-24T18:28:59.060Z,5.47
2023-05-24T18:31:26.050Z,5.60
2023-05-24T18:33:53.040Z,6.63
2023-05-24T18:36:20.511Z,3.33
2023-05-24T18:38:47.522Z,4.55
2023-05-24T18:41:15.289Z,5.47
2023-05-24T18:43:43.190Z,4.03
2023-05-24T18:46:14.914Z,8.80
2023-05-24T18:48:42.578Z,6.43
2023-05-24T18:51:09.755Z,6.40
2023-05-24T18:53:36.746Z,8.55
2023-05-24T18:56:03.872Z,5.85
2023-05-24T18:58:31.213Z,4.07
2023-05-24T19:00:58.228Z,5.95
2023-05-24T19:03:25.343Z,4.00
2023-05-24T19:05:52.450Z,4.28
2023-05-24T19:08:19.467Z,4.57
2023-05-24T19:10:46.426Z,6.90
2023-05-24T19:13:15.135Z,5.05
2023-05-24T19:15:42.379Z,6.28
2023-05-24T19:18:09.557Z,4.60
2023-05-24T19:20:36.768Z,5.80
2023-05-24T19:23:04.031Z,3.95
2023-05-24T19:25:31.496Z,6.07
2023-05-24T19:28:00.449Z,5.20
2023-05-24T19:30:27.901Z,4.22
2023-05-24T19:32:54.957Z,4.80
2023-05-24T19:35:22.014Z,5.85
2023-05-24T19:37:48.963Z,8.00
2023-05-24T19:40:16.283Z,3.75
2023-05-24T19:42:43.172Z,3.10
2023-05-24T19:45:10.565Z,7.53
2023-05-24T19:47:37.569Z,4.43
2023-05-24T19:50:04.827Z,4.35
2023-05-24T19:52:31.788Z,9.02
2023-05-24T19:54:58.780Z,3.72
2023-05-24T19:57:26.497Z,8.05
2023-05-24T19:59:53.461Z,7.43
2023-05-24T20:02:20.424Z,7.07
2023-05-24T20:04:47.366Z,9.45
2023-05-24T20:07:14.809Z,5.78
2023-05-24T20:09:41.949Z,5.10
2023-05-24T20:12:08.982Z,4.32
2023-05-24T20:14:36.018Z,5.28
2023-05-24T20:17:04.230Z,6.10
2023-05-24T20:19:31.112Z,6.93
2023-05-24T20:21:58.335Z,5.47
2023-05-24T20:24:25.221Z,4.88
2023-05-24T20:26:52.119Z,6.10
2023-05-24T20:29:19.022Z,6.43
2023-05-24T20:31:47.163Z,8.05
2023-05-24T20:34:14.159Z,5.47
2023-05-24T20:36:43.499Z,10.73
2023-05-24T20:39:10.835Z,4.82
2023-05-24T20:41:37.729Z,5.82
2023-05-24T20:44:04.659Z,4.70
2023-05-24T20:46:31.789Z,5.85
2023-05-24T20:48:58.796Z,7.35
2023-05-24T20:51:25.770Z,6.05
2023-05-24T20:53:53.401Z,11.50
2023-05-24T20:56:23.049Z,5.07
2023-05-24T20:58:53.029Z,7.22
2023-05-24T21:01:21.050Z,7.57
2023-05-24T21:03:48.091Z,6.70
2023-05-24T21:06:15.200Z,7.88
2023-05-24T21:08:43.114Z,6.15
2023-05-24T21:11:10.010Z,6.68
2023-05-24T21:13:36.994Z,8.95
2023-05-24T21:16:04.181Z,9.85
2023-05-24T21:18:31.660Z,12.48
2023-05-24T21:20:58.581Z,9.73
2023-05-24T21:23:25.587Z,8.70
2023-05-24T21:25:52.501Z,6.15
2023-05-24T21:28:19.361Z,5.53
2023-05-24T21:30:46.317Z,10.90
2023-05-24T21:33:13.285Z,4.97
2023-05-24T21:35:40.359Z,5.13
2023-05-24T21:38:07.338Z,7.75
2023-05-24T21:40:34.303Z,7.65
2023-05-24T21:43:01.169Z,6.00
2023-05-24T21:45:28.246Z,10.82
2023-05-24T21:47:55.213Z,8.88
2023-05-24T21:50:22.321Z,4.85
2023-05-24T21:52:49.287Z,8.10
2023-05-24T21:55:16.215Z,5.43
2023-05-24T21:57:43.141Z,4.15
2023-05-24T22:00:11.974Z,7.53
2023-05-24T22:02:38.999Z,11.80
2023-05-24T22:05:06.336Z,7.63
2023-05-24T22:07:33.312Z,6.18
2023-05-24T22:10:00.253Z,8.15
2023-05-24T22:12:27.169Z,6.90
2023-05-24T22:14:54.110Z,8.98
2023-05-24T22:17:22.150Z,7.90
2023-05-24T22:19:49.484Z,6.60
2023-05-24T22:22:19.712Z,7.78
2023-05-24T22:24:47.333Z,8.57
2023-05-24T22:27:14.274Z,6.10
2023-05-24T22:29:41.310Z,6.15
2023-05-24T22:32:08.335Z,5.38
2023-05-24T22:34:35.540Z,7.30
2023-05-24T22:37:02.456Z,9.30
2023-05-24T22:39:29.388Z,6.43
2023-05-24T22:41:56.336Z,10.30
2023-05-24T22:44:23.392Z,6.28
2023-05-24T22:46:53.773Z,7.10
2023-05-24T22:49:21.274Z,5.72
2023-05-24T22:51:50.506Z,8.82
2023-05-24T22:54:17.950Z,5.18
2023-05-24T22:56:46.306Z,6.30
2023-05-24T22:59:13.262Z,15.50
2023-05-24T23:01:40.257Z,9.82
2023-05-24T23:06:39.100Z,5.80
2023-05-24T23:09:06.040Z,6.00
2023-05-24T23:11:33.029Z,6.53
2023-05-24T23:14:00.266Z,5.38
2023-05-24T23:16:28.955Z,7.43
2023-05-24T23:18:57.435Z,7.60
2023-05-24T23:21:24.912Z,6.03
2023-05-24T23:23:52.841Z,8.02
2023-05-24T23:26:19.906Z,5.97
2023-05-24T23:28:46.824Z,10.60
2023-05-24T23:31:14.026Z,6.28
2023-05-24T23:33:40.939Z,6.00
2023-05-24T23:36:09.930Z,6.55
2023-05-24T23:38:37.286Z,6.35
2023-05-24T23:41:04.156Z,5.18
2023-05-24T23:43:31.251Z,4.68
2023-05-24T23:45:58.171Z,7.65
2023-05-24T23:48:25.051Z,7.65
2023-05-24T23:50:54.541Z,9.75
2023-05-24T23:53:21.864Z,9.50
2023-05-24T23:55:48.828Z,14.23
2023-05-24T23:58:15.940Z,8.43
